Wednesday, February 22, 2017, 12:28 PM EST

KDOV, Dover Air Force Base

Location: Dover, DE, United States Lat: 39.133
Local Time: 12:28 PM EST (17:28 GMT) Lon: -75.467
Time Zone: US/Eastern Elev: 29 ft

Show me the last for .
Show Decoded

2017-02-22 11:58 METAR KDOV 221658Z AUTO 18007KT 10SM BKN110 BKN180 12/12 A2998 =
2017-02-22 10:58 METAR KDOV 221558Z AUTO 16005KT 10SM OVC110 10/10 A3001 =
2017-02-22 10:38 METAR KDOV 221538Z AUTO 15005KT 10SM SCT008 OVC110 09/09 A3002 RMK AO2 CIG 008
                 RWY01 $ =
2017-02-22 09:58 METAR KDOV 221458Z AUTO 13005KT 10SM OVC008 08/08 A3004 =
2017-02-22 09:31 METAR KDOV 221431Z AUTO 15004KT 10SM OVC009 07/07 A3005 RMK AO2 $ =
2017-02-22 09:21 METAR KDOV 221421Z AUTO 14003KT 10SM OVC010 07/07 A3005 =
2017-02-22 08:58 METAR KDOV 221358Z AUTO 10003KT 10SM BKN011 OVC130 07/07 A3006 =
2017-02-22 08:43 METAR KDOV 221343Z AUTO 10003KT 10SM BKN011 OVC130 07/07 A3006 RMK AO2 CIG
                 011V130 BKN V SCT $ =
2017-02-22 08:33 METAR KDOV 221333Z AUTO 00000KT 10SM SCT011 OVC130 07/07 A3006 RMK AO2 $ =
2017-02-22 08:28 METAR KDOV 221328Z AUTO 10003KT 9SM BKN011 BKN130 07/07 A3006 RMK AO2 CIG
                 011V130 BKN011 V FEW =
2017-02-22 07:58 METAR KDOV 221258Z AUTO 00000KT 10SM SCT130 06/06 A3005 =
2017-02-22 06:58 METAR KDOV 221158Z AUTO 00000KT 10SM BKN140 05/05 A3005 =
2017-02-22 05:58 METAR KDOV 221058Z AUTO 00000KT 10SM SCT140 BKN160 05/05 A3005 =
2017-02-22 04:58 METAR KDOV 220958Z AUTO 00000KT 10SM FEW160 05/05 A3004 =
2017-02-22 03:58 METAR KDOV 220858Z AUTO 15005KT 10SM FEW150 05/05 A3004 RMK AO2 SLP176 T00470047
                 57021 $ =
2017-02-22 02:58 METAR KDOV 220758Z AUTO 15004KT 10SM SCT170 05/05 A3006 =
2017-02-22 01:58 METAR KDOV 220658Z AUTO 15003KT 10SM FEW170 04/04 A3007 =
2017-02-22 00:58 METAR KDOV 220558Z AUTO 15005KT 10SM BKN170 04/04 A3010 =
2017-02-21 23:58 METAR KDOV 220458Z AUTO 14004KT 10SM SCT200 04/04 A3013 =
2017-02-21 22:58 METAR KDOV 220358Z AUTO 14006KT 10SM CLR 04/04 A3015 =
2017-02-21 21:58 METAR KDOV 220258Z AUTO 15003KT 10SM CLR 05/04 A3018 =
2017-02-21 20:58 METAR KDOV 220158Z AUTO 15004KT 10SM CLR 05/04 A3018 =
2017-02-21 19:58 METAR KDOV 220058Z AUTO 15006KT 10SM CLR 05/04 A3019 =
2017-02-21 18:58 METAR KDOV 212358Z AUTO 13007KT 10SM CLR 06/05 A3019 =
2017-02-21 17:58 METAR KDOV 212258Z AUTO 12009KT 10SM CLR 06/04 A3018 =
2017-02-21 16:58 METAR KDOV 212158Z AUTO 12009KT 10SM CLR 07/03 A3020 =
2017-02-21 15:58 METAR KDOV 212058Z AUTO 11007G17KT 10SM CLR 07/03 A3022 =
2017-02-21 14:58 METAR KDOV 211958Z AUTO 11010KT 10SM FEW130 SCT200 08/03 A3023 =
2017-02-21 13:58 METAR KDOV 211858Z AUTO 11007G16KT 10SM SCT190 08/02 A3025 RMK AO2 SLP247
                 T00790024 $ =
2017-02-21 12:58 METAR KDOV 211758Z AUTO 11010G15KT 9SM FEW130 SCT200 08/02 A3028 RMK AO2 SLP257
                 T00830022 10091 20004 $ =

Support USWX by starting your Amazon purchase here.